Time;durP1;ratioP1;P1;durP2;ratioP2;P2;SDS_P1;SDS_P2;PMS_P1;PMS_P2;Temp;Humidity;BMP_temperature;BMP_pressure;BME280_temperature;BME280_humidity;BME280_pressure;Samples;Min_cycle;Max_cycle;Signal;HPM_P1;HPM_P2
2022/01/01 00:00:33;;;;;;;4.18;2.90;;;16.20;61.50;;;;;;5092375;28;20073;-66
2022/01/01 00:03:00;;;;;;;4.72;2.97;;;16.10;62.10;;;;;;5091356;28;20024;-65
2022/01/01 00:05:26;;;;;;;6.65;2.85;;;16.20;61.90;;;;;;5089591;28;20473;-66
2022/01/01 00:07:51;;;;;;;4.38;2.78;;;16.10;62.10;;;;;;5091643;28;20071;-66
2022/01/01 00:10:19;;;;;;;5.47;2.53;;;16.10;62.10;;;;;;5089254;28;20461;-64
2022/01/01 00:12:46;;;;;;;5.53;2.53;;;16.10;62.00;;;;;;5092141;28;20134;-66
2022/01/01 00:15:13;;;;;;;3.63;2.60;;;16.10;62.40;;;;;;5091329;28;20028;-66
2022/01/01 00:17:39;;;;;;;4.90;2.90;;;16.10;62.50;;;;;;5091624;28;20030;-65
2022/01/01 00:20:06;;;;;;;4.93;2.63;;;16.10;63.30;;;;;;5090820;28;20470;-64
2022/01/01 00:22:31;;;;;;;4.32;3.00;;;16.10;62.60;;;;;;5089743;28;20025;-65
2022/01/01 00:24:57;;;;;;;4.47;2.63;;;16.10;62.50;;;;;;5092097;28;20100;-65
2022/01/01 00:27:23;;;;;;;4.60;3.00;;;16.00;62.50;;;;;;5090707;28;20032;-65
2022/01/01 00:29:48;;;;;;;3.60;2.85;;;16.00;62.40;;;;;;5091922;28;20020;-65
2022/01/01 00:32:14;;;;;;;5.15;3.00;;;16.00;62.60;;;;;;5091180;28;20129;-65
2022/01/01 00:34:40;;;;;;;5.40;3.10;;;16.00;62.90;;;;;;5091246;28;20024;-66
2022/01/01 00:37:05;;;;;;;4.57;2.95;;;15.90;62.90;;;;;;5091001;28;20036;-65
2022/01/01 00:39:31;;;;;;;3.72;2.63;;;15.90;62.90;;;;;;5089169;28;20437;-66
2022/01/01 00:41:57;;;;;;;4.80;3.00;;;15.90;63.00;;;;;;5091346;28;20120;-66
2022/01/01 00:44:24;;;;;;;4.43;2.85;;;15.90;62.90;;;;;;5089671;28;20060;-65
2022/01/01 00:46:50;;;;;;;5.22;3.45;;;15.90;62.80;;;;;;5091457;28;20035;-65
2022/01/01 00:49:15;;;;;;;5.07;3.15;;;15.80;63.00;;;;;;5089672;28;20024;-65
2022/01/01 00:51:41;;;;;;;5.40;3.40;;;15.80;63.00;;;;;;5091733;28;20024;-65
2022/01/01 00:54:07;;;;;;;4.13;3.00;;;15.80;63.10;;;;;;5090891;28;20456;-65
2022/01/01 00:56:33;;;;;;;4.55;3.40;;;15.70;63.30;;;;;;5089137;28;20038;-65
2022/01/01 00:58:58;;;;;;;4.47;3.40;;;15.70;63.30;;;;;;5091564;28;20029;-64
2022/01/01 01:01:24;;;;;;;5.68;3.60;;;15.70;63.30;;;;;;5089215;28;20389;-65
2022/01/01 01:03:50;;;;;;;5.05;3.20;;;15.70;63.20;;;;;;5091581;28;20024;-65
2022/01/01 01:06:15;;;;;;;5.95;3.50;;;15.70;63.30;;;;;;5090843;28;20028;-65
2022/01/01 01:08:41;;;;;;;5.57;3.80;;;15.70;63.40;;;;;;5091240;28;20555;-65
2022/01/01 01:11:08;;;;;;;5.47;3.58;;;15.60;63.50;;;;;;5090569;28;20055;-65
2022/01/01 01:13:35;;;;;;;6.20;3.75;;;15.70;63.50;;;;;;5089394;28;20028;-64
2022/01/01 01:16:01;;;;;;;6.25;3.40;;;15.60;63.50;;;;;;5091205;28;20032;-65
2022/01/01 01:18:27;;;;;;;5.22;3.80;;;15.60;63.50;;;;;;5088446;28;20043;-65
2022/01/01 01:20:53;;;;;;;6.78;3.40;;;15.60;63.50;;;;;;5091009;28;20070;-65
2022/01/01 01:23:18;;;;;;;6.47;3.85;;;15.60;63.70;;;;;;5092858;28;20139;-66
2022/01/01 01:25:44;;;;;;;6.65;4.03;;;15.60;63.70;;;;;;5094714;28;20043;-64
2022/01/01 01:28:13;;;;;;;5.35;3.53;;;15.60;63.60;;;;;;5093811;28;20036;-65
2022/01/01 01:30:40;;;;;;;5.43;3.58;;;15.60;63.60;;;;;;5094938;28;20354;-65
2022/01/01 01:33:07;;;;;;;5.97;3.85;;;15.60;63.50;;;;;;5094065;28;20023;-64
2022/01/01 01:35:34;;;;;;;6.97;4.38;;;15.50;63.50;;;;;;5092733;28;20035;-65
2022/01/01 01:38:00;;;;;;;8.32;5.10;;;15.50;63.70;;;;;;5094715;28;20042;-65
2022/01/01 01:40:26;;;;;;;6.50;4.32;;;15.50;63.90;;;;;;5093781;28;20471;-66
2022/01/01 01:42:52;;;;;;;6.97;4.45;;;15.50;64.00;;;;;;5093379;28;20530;-64
2022/01/01 01:48:02;;;;;;;6.00;4.32;;;15.50;64.00;;;;;;5094357;28;20120;-64
2022/01/01 01:50:28;;;;;;;9.70;4.82;;;15.40;64.10;;;;;;5093537;28;20107;-64
2022/01/01 01:52:55;;;;;;;8.07;4.32;;;15.40;64.20;;;;;;5092384;28;20473;-64
2022/01/01 01:55:21;;;;;;;5.93;4.55;;;15.40;64.30;;;;;;5094091;28;20067;-66
2022/01/01 01:57:48;;;;;;;6.80;4.55;;;15.40;64.40;;;;;;5094438;28;20028;-65
2022/01/01 02:02:56;;;;;;;9.00;5.47;;;15.40;64.30;;;;;;5081715;28;20024;-65
2022/01/01 02:05:23;;;;;;;6.88;4.88;;;15.40;64.40;;;;;;5079692;28;20488;-62
2022/01/01 02:07:51;;;;;;;7.60;4.93;;;15.40;64.60;;;;;;5079683;28;20028;-61
2022/01/01 02:10:17;;;;;;;8.13;5.28;;;15.40;65.00;;;;;;5072669;28;20025;-66
2022/01/01 02:12:49;;;;;;;8.82;4.95;;;15.40;64.80;;;;;;5074037;28;20055;-64
2022/01/01 02:18:05;;;;;;;9.23;5.20;;;15.40;65.50;;;;;;5072645;28;20150;-67
2022/01/01 02:20:30;;;;;;;8.32;5.20;;;15.40;64.80;;;;;;5072306;28;20028;-65
2022/01/01 02:23:01;;;;;;;7.50;5.63;;;15.40;64.60;;;;;;5072551;28;20027;-63
2022/01/01 02:25:28;;;;;;;8.85;5.50;;;15.40;64.70;;;;;;5052514;28;20028;-65
2022/01/01 02:27:55;;;;;;;7.82;5.40;;;15.40;64.60;;;;;;5087448;28;20044;-65
2022/01/01 02:30:22;;;;;;;7.35;5.40;;;15.50;64.50;;;;;;5091271;28;20028;-65
2022/01/01 02:32:47;;;;;;;6.65;5.03;;;15.40;64.40;;;;;;5075050;28;20036;-62
2022/01/01 02:35:16;;;;;;;10.68;5.47;;;15.50;64.50;;;;;;5067559;28;20032;-65
2022/01/01 02:37:42;;;;;;;9.82;6.40;;;15.40;64.80;;;;;;5070523;28;20036;-63
2022/01/01 02:40:11;;;;;;;7.47;5.63;;;15.40;64.80;;;;;;5069181;28;20032;-71
2022/01/01 02:42:38;;;;;;;8.07;5.88;;;15.30;65.10;;;;;;5070926;28;20055;-69
2022/01/01 02:45:08;;;;;;;9.38;6.00;;;15.30;65.00;;;;;;5072284;28;20059;-62
2022/01/01 02:47:53;;;;;;;8.35;6.03;;;15.30;65.00;;;;;;5071594;28;20504;-64
2022/01/01 02:50:18;;;;;;;9.10;5.68;;;15.40;64.80;;;;;;5071448;28;20028;-70
2022/01/01 02:52:44;;;;;;;11.38;6.40;;;15.40;64.80;;;;;;5085963;28;20032;-64
2022/01/01 02:55:10;;;;;;;10.45;6.70;;;15.40;64.90;;;;;;5084644;28;20086;-68
2022/01/01 02:57:36;;;;;;;8.80;6.28;;;15.40;65.10;;;;;;5071588;28;20499;-66
2022/01/01 03:00:04;;;;;;;8.43;6.28;;;15.40;65.20;;;;;;5072633;28;20107;-66
2022/01/01 03:02:30;;;;;;;8.75;6.10;;;15.40;65.00;;;;;;5071480;28;20032;-69
2022/01/01 03:04:56;;;;;;;9.57;5.75;;;15.40;64.90;;;;;;5072117;28;20366;-71
2022/01/01 03:07:21;;;;;;;8.95;6.03;;;15.40;65.00;;;;;;5069685;28;20029;-70
2022/01/01 03:09:47;;;;;;;8.00;6.10;;;15.40;65.20;;;;;;5071818;28;20028;-68
2022/01/01 03:12:14;;;;;;;8.88;5.85;;;15.30;65.10;;;;;;5070696;28;20477;-68
2022/01/01 03:14:40;;;;;;;8.00;5.57;;;15.40;65.30;;;;;;5072018;28;20029;-66
2022/01/01 03:17:07;;;;;;;8.75;6.15;;;15.40;65.30;;;;;;5071305;28;20111;-69
2022/01/01 03:22:17;;;;;;;9.50;6.07;;;15.40;65.10;;;;;;5061089;28;20036;-72
2022/01/01 03:24:43;;;;;;;8.20;5.78;;;15.50;65.00;;;;;;5071454;28;20020;-66
2022/01/01 03:27:08;;;;;;;7.00;5.30;;;15.50;65.20;;;;;;5071224;28;20482;-68
2022/01/01 03:29:34;;;;;;;9.35;5.82;;;15.50;65.20;;;;;;5069716;28;20032;-72
2022/01/01 03:32:00;;;;;;;7.25;5.30;;;15.50;65.10;;;;;;5071763;28;20052;-68
2022/01/01 03:34:26;;;;;;;9.80;5.85;;;15.50;65.10;;;;;;5082964;28;20393;-70
2022/01/01 03:36:52;;;;;;;7.75;5.50;;;15.50;65.30;;;;;;5071499;28;20036;-73
2022/01/01 03:39:18;;;;;;;7.93;5.38;;;15.50;65.60;;;;;;5070795;28;20460;-68
2022/01/01 03:41:44;;;;;;;9.10;5.57;;;15.40;65.50;;;;;;5071394;28;20100;-73
2022/01/01 03:44:09;;;;;;;6.50;5.03;;;15.40;65.30;;;;;;5069947;28;20024;-67
2022/01/01 03:46:35;;;;;;;8.43;5.10;;;15.50;65.40;;;;;;5070821;28;20033;-75
2022/01/01 03:49:01;;;;;;;7.28;5.10;;;15.50;65.30;;;;;;5071192;28;20024;-67
2022/01/01 03:51:27;;;;;;;8.32;5.13;;;15.60;65.10;;;;;;5076348;28;20036;-69
2022/01/01 03:53:52;;;;;;;7.65;5.00;;;15.60;65.00;;;;;;5072492;28;20021;-71
2022/01/01 03:56:18;;;;;;;7.45;5.43;;;15.50;65.30;;;;;;5085113;28;20549;-64
2022/01/01 03:58:44;;;;;;;7.88;5.68;;;15.40;65.30;;;;;;5067933;28;20063;-71
2022/01/01 04:01:10;;;;;;;7.95;5.07;;;15.50;64.90;;;;;;5067777;28;20442;-71
2022/01/01 04:03:38;;;;;;;6.68;4.50;;;15.50;65.40;;;;;;5069245;28;20111;-71
2022/01/01 04:06:04;;;;;;;8.20;5.35;;;15.50;65.50;;;;;;5070576;28;20060;-69
2022/01/01 04:08:31;;;;;;;7.78;5.13;;;15.50;65.70;;;;;;5088971;28;20153;-71
2022/01/01 04:10:57;;;;;;;6.30;4.80;;;15.50;65.70;;;;;;5070282;28;20553;-69
2022/01/01 04:13:23;;;;;;;8.25;5.10;;;15.40;65.80;;;;;;5068559;28;20469;-73
2022/01/01 04:15:49;;;;;;;6.38;4.70;;;15.40;66.30;;;;;;5070669;28;20036;-71
2022/01/01 04:18:25;;;;;;;8.52;4.88;;;15.40;66.50;;;;;;5071276;28;20068;-70
2022/01/01 04:20:51;;;;;;;7.20;4.35;;;15.40;66.70;;;;;;5064399;28;20445;-69
2022/01/01 04:23:17;;;;;;;6.78;4.82;;;15.20;67.30;;;;;;5080326;28;20032;-65
2022/01/01 04:25:44;;;;;;;6.32;4.43;;;15.20;67.20;;;;;;5064239;28;20409;-73
2022/01/01 04:28:10;;;;;;;6.80;4.30;;;15.20;67.50;;;;;;5069113;28;20037;-70
2022/01/01 04:30:36;;;;;;;8.43;4.55;;;15.20;67.70;;;;;;5070573;28;20052;-71
2022/01/01 04:33:02;;;;;;;5.40;4.13;;;15.30;67.80;;;;;;5070499;28;20035;-70
2022/01/01 04:35:28;;;;;;;6.45;4.32;;;15.20;68.20;;;;;;5070245;28;20081;-68
2022/01/01 04:37:54;;;;;;;6.80;4.47;;;15.20;68.20;;;;;;5070302;28;20037;-69
2022/01/01 04:40:19;;;;;;;5.95;4.22;;;15.20;67.90;;;;;;5077302;28;20181;-68
2022/01/01 04:42:45;;;;;;;6.75;4.60;;;15.10;67.80;;;;;;5078981;28;20029;-68
2022/01/01 04:45:11;;;;;;;8.25;4.65;;;15.10;68.00;;;;;;5070372;28;20458;-69
2022/01/01 04:47:37;;;;;;;7.70;4.32;;;15.00;68.10;;;;;;5070092;28;20278;-69
2022/01/01 04:50:04;;;;;;;7.60;4.10;;;15.00;68.20;;;;;;5067017;28;20461;-69
2022/01/01 04:52:31;;;;;;;5.57;4.13;;;14.90;68.40;;;;;;5059814;28;20115;-70
2022/01/01 04:54:58;;;;;;;6.97;4.43;;;14.90;68.40;;;;;;5049291;28;20036;-69
2022/01/01 04:57:29;;;;;;;7.22;4.25;;;14.80;68.50;;;;;;5081621;28;20068;-68
2022/01/01 05:00:00;;;;;;;6.00;4.10;;;14.90;68.40;;;;;;5072353;28;20167;-69
2022/01/01 05:02:26;;;;;;;6.45;4.30;;;14.90;68.50;;;;;;5069314;28;20059;-69
2022/01/01 05:04:56;;;;;;;6.80;4.93;;;14.90;68.40;;;;;;5072797;28;20020;-69
2022/01/01 05:07:23;;;;;;;6.18;4.30;;;14.90;68.20;;;;;;5075765;28;20029;-68
2022/01/01 05:09:49;;;;;;;5.57;3.97;;;14.90;68.20;;;;;;5063767;28;20499;-69
2022/01/01 05:12:15;;;;;;;7.72;4.45;;;14.80;68.10;;;;;;5067569;28;20194;-68
2022/01/01 05:14:43;;;;;;;6.65;4.32;;;14.80;68.30;;;;;;5090015;28;20383;-68
2022/01/01 05:17:10;;;;;;;6.25;4.30;;;14.80;68.30;;;;;;5072631;28;20025;-69
2022/01/01 05:19:36;;;;;;;7.20;4.22;;;14.80;68.10;;;;;;5071480;28;20029;-69
2022/01/01 05:22:02;;;;;;;5.30;3.90;;;14.90;67.90;;;;;;5070334;28;20021;-69
2022/01/01 05:24:28;;;;;;;6.63;3.38;;;14.90;67.60;;;;;;5067537;28;20058;-69
2022/01/01 05:26:54;;;;;;;7.25;4.35;;;15.00;67.50;;;;;;5067523;28;20163;-69
2022/01/01 05:29:20;;;;;;;5.97;3.60;;;14.90;67.20;;;;;;5049587;28;20635;-69
2022/01/01 05:31:45;;;;;;;5.32;3.38;;;15.00;67.10;;;;;;5054086;28;20597;-69
2022/01/01 05:34:11;;;;;;;7.32;4.45;;;15.00;67.10;;;;;;5049971;28;20039;-69
2022/01/01 05:36:41;;;;;;;4.82;3.28;;;15.00;67.00;;;;;;5060973;28;20028;-68
2022/01/01 05:39:08;;;;;;;5.30;3.13;;;14.90;67.00;;;;;;5068552;28;20082;-70
2022/01/01 05:41:34;;;;;;;5.13;3.53;;;14.80;67.20;;;;;;5065994;28;20324;-67
2022/01/01 05:44:00;;;;;;;5.72;3.40;;;14.80;67.20;;;;;;5055879;28;20028;-69
2022/01/01 05:46:29;;;;;;;5.53;3.25;;;14.90;67.20;;;;;;5083526;28;20024;-69
2022/01/01 05:48:54;;;;;;;5.32;3.30;;;14.80;67.10;;;;;;5062721;28;20027;-68
2022/01/01 05:51:20;;;;;;;4.93;3.20;;;14.80;67.30;;;;;;5068084;28;20017;-68
2022/01/01 05:53:46;;;;;;;4.28;2.95;;;14.70;67.60;;;;;;5046785;28;21437;-68
2022/01/01 05:56:11;;;;;;;4.95;2.90;;;14.70;67.50;;;;;;5063840;28;20051;-69
2022/01/01 05:58:39;;;;;;;3.50;2.33;;;14.70;67.40;;;;;;5055821;28;20154;-70
2022/01/01 06:01:05;;;;;;;3.40;2.38;;;14.70;67.20;;;;;;5052168;28;20040;-69
2022/01/01 06:03:31;;;;;;;4.20;2.78;;;14.80;66.90;;;;;;5053919;28;20032;-69
2022/01/01 06:05:57;;;;;;;3.65;2.30;;;14.80;66.80;;;;;;5079653;28;20040;-69
2022/01/01 06:08:28;;;;;;;5.30;2.42;;;14.80;66.60;;;;;;5071064;28;20059;-69
2022/01/01 06:10:57;;;;;;;3.05;2.30;;;14.80;66.60;;;;;;5050672;28;20075;-69
2022/01/01 06:13:23;;;;;;;2.92;2.00;;;14.90;66.40;;;;;;5052452;28;20051;-68
2022/01/01 06:15:49;;;;;;;3.47;2.20;;;15.00;66.00;;;;;;5051144;28;20630;-68
2022/01/01 06:18:15;;;;;;;4.15;2.33;;;15.00;65.80;;;;;;5072548;28;20040;-68
2022/01/01 06:20:42;;;;;;;4.68;2.60;;;15.00;65.60;;;;;;5070325;28;20308;-69
2022/01/01 06:23:07;;;;;;;4.35;2.83;;;15.10;65.40;;;;;;5073667;28;20029;-69
2022/01/01 06:25:34;;;;;;;3.28;2.42;;;15.10;65.30;;;;;;5078999;28;20081;-68
2022/01/01 06:28:00;;;;;;;6.63;2.72;;;15.10;65.30;;;;;;5093730;28;20035;-69
2022/01/01 06:30:33;;;;;;;4.63;2.80;;;15.20;65.30;;;;;;5090645;28;20017;-69
2022/01/01 06:33:17;;;;;;;3.85;2.85;;;15.20;65.20;;;;;;5091362;28;20028;-69
2022/01/01 06:35:44;;;;;;;3.92;3.28;;;15.20;65.40;;;;;;5092504;28;20379;-70
2022/01/01 06:38:11;;;;;;;5.13;3.33;;;15.20;65.30;;;;;;5093555;28;20028;-69
2022/01/01 06:40:39;;;;;;;4.60;3.20;;;15.20;65.30;;;;;;5090480;28;20039;-69
2022/01/01 06:43:06;;;;;;;4.90;3.30;;;15.20;65.60;;;;;;5093338;28;20049;-70
2022/01/01 06:45:32;;;;;;;5.75;3.65;;;15.10;65.70;;;;;;5083202;28;20028;-69
2022/01/01 06:47:58;;;;;;;4.90;3.50;;;15.20;65.70;;;;;;5075103;28;20098;-69
2022/01/01 06:50:23;;;;;;;6.32;3.92;;;15.10;65.90;;;;;;5087100;28;20461;-69
2022/01/01 06:52:49;;;;;;;5.57;3.63;;;15.00;66.00;;;;;;5088007;28;20389;-69
2022/01/01 06:55:15;;;;;;;6.47;4.57;;;14.90;66.40;;;;;;5072376;28;20024;-69
2022/01/01 06:57:42;;;;;;;7.50;4.53;;;14.90;66.50;;;;;;5083245;28;20130;-69
2022/01/01 07:00:09;;;;;;;8.65;4.75;;;14.80;66.80;;;;;;5075581;28;20453;-69
2022/01/01 07:02:39;;;;;;;7.38;4.80;;;14.80;67.10;;;;;;5080445;28;20084;-69
2022/01/01 07:05:06;;;;;;;10.40;5.15;;;14.70;67.40;;;;;;5076218;28;20020;-69
2022/01/01 07:07:32;;;;;;;7.63;5.20;;;14.70;67.50;;;;;;5071528;28;20024;-69
2022/01/01 07:09:58;;;;;;;6.80;4.80;;;14.70;67.70;;;;;;5072325;28;20083;-69
2022/01/01 07:12:23;;;;;;;7.50;4.63;;;14.60;67.90;;;;;;5072429;28;20146;-69
2022/01/01 07:14:49;;;;;;;7.25;4.88;;;14.50;68.20;;;;;;5092892;28;20035;-69
2022/01/01 07:17:15;;;;;;;7.40;4.50;;;14.60;68.50;;;;;;5091394;28;20438;-69
2022/01/01 07:19:41;;;;;;;7.10;4.72;;;14.50;68.60;;;;;;5088292;28;20020;-68
2022/01/01 07:22:06;;;;;;;8.45;4.70;;;14.50;68.70;;;;;;5077050;28;20074;-69
2022/01/01 07:24:32;;;;;;;6.28;3.80;;;14.40;69.10;;;;;;5086947;28;20521;-70
2022/01/01 07:26:58;;;;;;;6.88;4.13;;;14.40;69.10;;;;;;5075585;28;20033;-70
2022/01/01 07:29:24;;;;;;;9.98;4.63;;;14.40;68.90;;;;;;5080040;28;20107;-71
2022/01/01 07:31:53;;;;;;;6.85;4.50;;;14.50;68.80;;;;;;5088165;28;20134;-70
2022/01/01 07:34:20;;;;;;;6.95;4.65;;;14.40;68.80;;;;;;5090775;28;20028;-69
2022/01/01 07:36:46;;;;;;;6.65;4.13;;;14.50;68.70;;;;;;5085813;28;20044;-68
2022/01/01 07:39:12;;;;;;;15.88;14.70;;;14.40;68.80;;;;;;5090795;28;20028;-69
2022/01/01 07:41:37;;;;;;;24.33;22.63;;;14.80;69.00;;;;;;5089961;28;20043;-68
2022/01/01 07:44:03;;;;;;;29.98;27.98;;;16.10;63.90;;;;;;5089838;28;20035;-69
2022/01/01 07:46:29;;;;;;;15.90;14.70;;;16.40;61.70;;;;;;5092798;28;20039;-68
2022/01/01 07:48:55;;;;;;;6.95;4.25;;;16.20;62.30;;;;;;5071557;28;20107;-69
2022/01/01 07:51:21;;;;;;;4.85;3.80;;;16.00;63.40;;;;;;5073360;28;20119;-69
2022/01/01 07:53:47;;;;;;;5.25;3.65;;;15.90;64.60;;;;;;5073596;28;20047;-69
2022/01/01 07:56:31;;;;;;;4.68;3.17;;;15.90;63.50;;;;;;5065843;28;20032;-68
2022/01/01 07:58:57;;;;;;;6.05;4.03;;;15.90;63.00;;;;;;5051515;28;20059;-68
2022/01/01 08:01:23;;;;;;;6.47;3.58;;;15.90;63.10;;;;;;5051860;28;20453;-69
2022/01/01 08:03:49;;;;;;;5.00;3.60;;;15.80;62.80;;;;;;5079305;28;20016;-69
2022/01/01 08:06:16;;;;;;;4.47;3.28;;;15.80;63.00;;;;;;5091559;28;20032;-69
2022/01/01 08:08:42;;;;;;;7.30;4.05;;;15.70;63.00;;;;;;5089098;28;20085;-70
2022/01/01 08:11:07;;;;;;;4.70;3.33;;;15.80;63.00;;;;;;5091639;28;20109;-69
2022/01/01 08:13:35;;;;;;;5.18;3.40;;;15.70;63.00;;;;;;5082590;28;20475;-68
2022/01/01 08:16:01;;;;;;;6.10;3.40;;;15.80;62.60;;;;;;5069967;28;20516;-68
2022/01/01 08:18:29;;;;;;;5.22;3.38;;;15.70;62.70;;;;;;5072317;28;20392;-69
2022/01/01 08:20:56;;;;;;;4.25;3.17;;;15.70;63.00;;;;;;5072979;28;20036;-69
2022/01/01 08:23:22;;;;;;;4.88;3.17;;;15.70;63.00;;;;;;5071314;28;20365;-70
2022/01/01 08:25:48;;;;;;;4.18;2.80;;;15.80;63.10;;;;;;5070318;28;20025;-68
2022/01/01 08:28:14;;;;;;;6.53;3.53;;;15.80;63.50;;;;;;5069518;28;20037;-69
2022/01/01 08:30:39;;;;;;;6.18;3.70;;;15.90;62.50;;;;;;5076095;28;20082;-70
2022/01/01 08:33:05;;;;;;;5.65;4.05;;;16.00;62.30;;;;;;5076843;28;20342;-70
2022/01/01 08:35:32;;;;;;;6.53;4.18;;;16.00;62.20;;;;;;5070817;28;20025;-70
2022/01/01 08:38:00;;;;;;;5.95;3.45;;;16.00;62.30;;;;;;5090930;28;20032;-70
2022/01/01 08:40:27;;;;;;;6.70;4.25;;;16.10;62.00;;;;;;5089547;28;20048;-70
2022/01/01 08:42:52;;;;;;;6.00;3.72;;;16.30;61.80;;;;;;5090467;28;20095;-70
2022/01/01 08:45:18;;;;;;;5.57;3.10;;;16.30;61.50;;;;;;5090624;28;20111;-70
2022/01/01 08:47:44;;;;;;;6.55;3.47;;;16.50;60.90;;;;;;5075216;28;20080;-70
2022/01/01 08:50:10;;;;;;;5.85;3.25;;;16.60;60.60;;;;;;5070902;28;20067;-70
2022/01/01 08:52:36;;;;;;;5.45;3.47;;;16.70;60.50;;;;;;5068592;28;20036;-69
2022/01/01 08:55:02;;;;;;;4.40;3.13;;;16.90;60.00;;;;;;5050523;28;20021;-70
2022/01/01 08:57:30;;;;;;;7.43;3.70;;;17.00;59.60;;;;;;5050606;28;20040;-72
2022/01/01 08:59:55;;;;;;;5.10;3.42;;;17.00;59.20;;;;;;5069251;28;20029;-70
2022/01/01 09:02:21;;;;;;;6.97;3.35;;;17.10;59.10;;;;;;5088633;28;20099;-69
2022/01/01 09:04:47;;;;;;;5.53;3.10;;;17.20;58.60;;;;;;5089950;28;20465;-70
2022/01/01 09:07:13;;;;;;;4.68;3.13;;;17.30;58.50;;;;;;5089551;28;20052;-68
2022/01/01 09:09:40;;;;;;;5.90;3.38;;;17.30;58.10;;;;;;5077871;28;20469;-69
2022/01/01 09:12:07;;;;;;;6.50;3.60;;;17.30;58.00;;;;;;5105774;28;20060;-70
2022/01/01 09:14:33;;;;;;;4.03;2.95;;;17.20;58.10;;;;;;5080951;28;20024;-69
2022/01/01 09:16:59;;;;;;;5.18;3.58;;;17.20;58.30;;;;;;5071310;28;20090;-68
2022/01/01 09:19:26;;;;;;;5.93;3.35;;;17.20;58.20;;;;;;5069362;28;20458;-69
2022/01/01 09:21:52;;;;;;;4.63;3.45;;;17.30;57.90;;;;;;5075746;28;20047;-69
2022/01/01 09:24:18;;;;;;;4.28;3.10;;;17.20;57.90;;;;;;5071241;28;20029;-69
2022/01/01 09:26:43;;;;;;;5.22;3.55;;;17.20;58.00;;;;;;5075549;28;20568;-69
2022/01/01 09:29:10;;;;;;;5.43;3.22;;;17.10;58.30;;;;;;5070699;28;20021;-68
2022/01/01 09:31:40;;;;;;;6.53;3.65;;;17.10;58.20;;;;;;5078357;28;20114;-68
2022/01/01 09:34:06;;;;;;;5.43;3.40;;;17.10;58.40;;;;;;5072194;28;20025;-68
2022/01/01 09:36:32;;;;;;;5.57;3.38;;;16.90;58.60;;;;;;5071987;28;20035;-68
2022/01/01 09:38:59;;;;;;;3.80;2.80;;;16.80;59.40;;;;;;5088551;28;20021;-68
2022/01/01 09:41:25;;;;;;;4.95;3.25;;;16.80;59.40;;;;;;5088137;28;20040;-69
2022/01/01 09:43:54;;;;;;;6.47;3.38;;;16.70;59.40;;;;;;5092223;28;20055;-69
2022/01/01 09:46:20;;;;;;;5.72;3.50;;;16.70;59.60;;;;;;5093525;28;20119;-69
2022/01/01 09:48:46;;;;;;;5.80;3.53;;;16.70;59.50;;;;;;5073062;28;20040;-69
2022/01/01 09:51:13;;;;;;;4.60;3.22;;;16.70;59.60;;;;;;5074173;28;20017;-69
2022/01/01 09:53:39;;;;;;;4.88;3.25;;;16.70;59.60;;;;;;5071746;28;20032;-70
2022/01/01 09:56:05;;;;;;;6.28;3.53;;;16.70;59.60;;;;;;5072147;28;20098;-69
2022/01/01 09:58:34;;;;;;;5.35;3.13;;;16.70;59.40;;;;;;5064479;28;20061;-69
2022/01/01 10:01:02;;;;;;;6.65;2.90;;;16.80;59.50;;;;;;5065127;28;20028;-69
2022/01/01 10:03:40;;;;;;;5.32;3.35;;;16.80;59.40;;;;;;5071443;28;20388;-68
2022/01/01 10:06:09;;;;;;;4.45;3.30;;;16.90;59.50;;;;;;5072368;28;20108;-70
2022/01/01 10:08:38;;;;;;;5.35;3.35;;;17.10;59.00;;;;;;5053857;28;20409;-69
2022/01/01 10:11:05;;;;;;;5.05;3.22;;;17.10;58.80;;;;;;5071251;28;20052;-69
2022/01/01 10:13:37;;;;;;;6.22;3.70;;;16.90;58.90;;;;;;5072408;28;20054;-68
2022/01/01 10:16:05;;;;;;;4.65;3.03;;;16.70;59.60;;;;;;5071395;28;20071;-69
2022/01/01 10:18:33;;;;;;;7.30;3.55;;;16.80;59.30;;;;;;5072129;28;20059;-69
2022/01/01 10:21:11;;;;;;;4.40;3.17;;;16.90;59.30;;;;;;5069450;28;20060;-69
2022/01/01 10:23:39;;;;;;;5.72;3.13;;;16.90;58.50;;;;;;5071455;28;20025;-70
2022/01/01 10:29:12;;;;;;;4.10;3.00;;;17.10;58.70;;;;;;5071031;28;20043;-69
2022/01/01 10:31:39;;;;;;;4.30;2.90;;;17.30;58.20;;;;;;5058983;28;20048;-69
2022/01/01 10:34:14;;;;;;;5.30;3.53;;;17.40;57.50;;;;;;5071213;28;20056;-69
2022/01/01 10:36:43;;;;;;;5.75;3.42;;;17.50;57.60;;;;;;5076281;28;20036;-69
2022/01/01 10:39:11;;;;;;;6.32;3.10;;;17.80;56.90;;;;;;5074530;28;20021;-69
2022/01/01 10:41:47;;;;;;;5.00;3.30;;;18.20;56.20;;;;;;5071440;28;20064;-70
2022/01/01 10:44:13;;;;;;;6.05;3.13;;;18.30;55.00;;;;;;5070353;28;20384;-70
2022/01/01 10:46:40;;;;;;;8.10;3.40;;;18.20;55.30;;;;;;5083499;28;20039;-69
2022/01/01 10:52:32;;;;;;;5.03;3.20;;;18.20;55.60;;;;;;5000713;28;20034;-71
2022/01/01 10:55:07;;;;;;;5.75;2.97;;;18.20;55.50;;;;;;5062302;28;23007;-72
2022/01/01 10:57:41;;;;;;;6.40;3.30;;;18.10;55.50;;;;;;5056620;28;20465;-71
2022/01/01 11:00:17;;;;;;;4.80;2.90;;;18.10;55.90;;;;;;5055688;28;20115;-71
2022/01/01 11:02:54;;;;;;;5.43;2.90;;;18.00;56.30;;;;;;5056119;28;20117;-71
2022/01/01 11:05:39;;;;;;;5.40;2.83;;;18.00;56.40;;;;;;5054917;28;20017;-73
2022/01/01 11:08:08;;;;;;;6.50;3.53;;;17.90;56.60;;;;;;5060365;28;20032;-72
2022/01/01 11:10:35;;;;;;;5.55;3.50;;;17.80;56.70;;;;;;5072688;28;20039;-71
2022/01/01 11:13:04;;;;;;;5.40;3.47;;;17.70;56.80;;;;;;5055713;28;20043;-70
2022/01/01 11:15:30;;;;;;;6.38;3.35;;;17.70;57.10;;;;;;5061395;28;20078;-73
2022/01/01 11:17:57;;;;;;;6.00;3.00;;;17.70;57.20;;;;;;5063322;28;20484;-72
2022/01/01 11:20:24;;;;;;;6.25;3.05;;;18.00;56.80;;;;;;5068627;28;20024;-71
2022/01/01 11:22:51;;;;;;;5.18;3.05;;;18.20;56.00;;;;;;5052327;28;20041;-71
2022/01/01 11:25:18;;;;;;;5.32;3.28;;;18.10;55.80;;;;;;5067503;28;20024;-72
2022/01/01 11:27:45;;;;;;;4.90;3.28;;;18.10;55.90;;;;;;5069801;28;20067;-69
2022/01/01 11:30:13;;;;;;;6.72;3.30;;;18.00;56.30;;;;;;5079503;28;20414;-71
2022/01/01 11:32:51;;;;;;;5.47;3.20;;;18.00;56.40;;;;;;5069476;28;20104;-72
2022/01/01 11:35:31;;;;;;;5.13;3.00;;;18.00;56.20;;;;;;5077784;28;20027;-73
2022/01/01 11:38:16;;;;;;;7.15;3.22;;;18.00;56.40;;;;;;5069514;28;20055;-73
2022/01/01 11:40:58;;;;;;;8.55;3.28;;;17.90;56.50;;;;;;5070745;28;20460;-72
2022/01/01 11:43:53;;;;;;;5.35;3.17;;;18.00;56.80;;;;;;5070976;28;20036;-73
2022/01/01 11:46:43;;;;;;;5.55;3.85;;;18.00;56.50;;;;;;5064782;28;20500;-70
2022/01/01 11:49:25;;;;;;;5.00;2.90;;;17.90;57.00;;;;;;5070481;28;20476;-71
2022/01/01 11:51:56;;;;;;;5.80;3.20;;;17.90;56.80;;;;;;5069269;28;20028;-70
2022/01/01 11:54:39;;;;;;;4.90;3.35;;;17.80;56.80;;;;;;5070574;28;20028;-69
2022/01/01 11:57:05;;;;;;;5.43;3.25;;;17.90;56.80;;;;;;5068428;28;20024;-70
2022/01/01 11:59:45;;;;;;;5.45;2.97;;;17.90;56.60;;;;;;5065523;28;20090;-71
2022/01/01 12:02:11;;;;;;;5.35;3.13;;;17.90;56.70;;;;;;5071009;28;20028;-72
2022/01/01 12:04:41;;;;;;;4.78;2.83;;;17.80;56.90;;;;;;5064416;28;20089;-72
2022/01/01 12:07:16;;;;;;;5.68;3.40;;;17.70;57.10;;;;;;5069779;28;20058;-72
2022/01/01 12:10:06;;;;;;;7.03;2.78;;;17.80;56.90;;;;;;5065748;28;20041;-73
2022/01/01 12:15:23;;;;;;;10.18;3.15;;;17.80;56.90;;;;;;5066811;28;20175;-70
2022/01/01 12:17:56;;;;;;;6.28;3.03;;;17.90;56.60;;;;;;5069984;28;20039;-71
2022/01/01 12:20:26;;;;;;;5.40;2.53;;;17.90;56.40;;;;;;5070756;28;20048;-73
2022/01/01 12:22:53;;;;;;;4.55;2.67;;;17.80;56.70;;;;;;5067770;28;20271;-74
2022/01/01 12:25:25;;;;;;;5.85;2.58;;;17.80;56.50;;;;;;5068702;28;20043;-73
2022/01/01 12:27:52;;;;;;;4.05;2.88;;;17.80;56.30;;;;;;5068206;28;20409;-74
2022/01/01 12:30:36;;;;;;;3.70;2.70;;;17.70;56.50;;;;;;5070339;28;20071;-73
2022/01/01 12:33:03;;;;;;;3.90;2.72;;;17.60;57.00;;;;;;5069251;28;20111;-77
2022/01/01 12:35:48;;;;;;;4.53;2.50;;;17.60;57.10;;;;;;5062547;28;20041;-70
2022/01/01 12:38:21;;;;;;;4.22;2.90;;;17.50;57.40;;;;;;5059299;28;20028;-73
2022/01/01 12:41:03;;;;;;;5.95;2.85;;;17.50;57.50;;;;;;5058716;28;20047;-75
2022/01/01 12:43:41;;;;;;;4.72;3.05;;;17.50;57.40;;;;;;5063178;28;20071;-74
2022/01/01 12:46:07;;;;;;;4.53;2.80;;;17.40;57.50;;;;;;5069512;28;20066;-72
2022/01/01 12:48:33;;;;;;;5.63;2.90;;;17.40;57.80;;;;;;5064696;28;20029;-73
2022/01/01 12:51:05;;;;;;;6.28;2.90;;;17.20;58.00;;;;;;5070202;28;20043;-73
2022/01/01 12:53:33;;;;;;;4.13;2.67;;;17.30;57.90;;;;;;5072766;28;20028;-72
2022/01/01 12:56:03;;;;;;;5.88;3.03;;;17.20;58.30;;;;;;5071311;28;20094;-73
2022/01/01 12:58:43;;;;;;;4.43;2.78;;;17.30;58.00;;;;;;5071175;28;20064;-74
2022/01/01 13:01:11;;;;;;;4.70;2.80;;;17.30;57.90;;;;;;5075892;28;20024;-69
2022/01/01 13:03:38;;;;;;;4.53;2.53;;;17.20;58.00;;;;;;5076789;28;20034;-69
2022/01/01 13:06:04;;;;;;;6.43;3.05;;;17.20;57.90;;;;;;5065095;28;20029;-68
2022/01/01 13:08:30;;;;;;;5.78;2.90;;;17.20;57.90;;;;;;5076926;28;20044;-68